Time;durP1;ratioP1;P1;durP2;ratioP2;P2;SDS_P1;SDS_P2;PMS_P1;PMS_P2;Temp;Humidity;BMP_temperature;BMP_pressure;BME280_temperature;BME280_humidity;BME280_pressure;Samples;Min_cycle;Max_cycle;Signal;HPM_P1;HPM_P2
2022/07/27 00:00:23;;;;;;;2.45;1.55;;;16.20;97.90;;;;;;5004257;28;20042;-39
2022/07/27 00:02:50;;;;;;;2.58;1.50;;;16.20;97.90;;;;;;5004753;28;20041;-39
2022/07/27 00:05:15;;;;;;;2.58;1.30;;;16.30;96.80;;;;;;5003997;28;20057;-39
2022/07/27 00:07:41;;;;;;;2.20;1.52;;;16.40;96.40;;;;;;5003446;28;20391;-38
2022/07/27 00:10:07;;;;;;;2.35;1.60;;;16.40;97.30;;;;;;5005073;28;20492;-40
2022/07/27 00:12:33;;;;;;;2.22;1.70;;;16.40;98.60;;;;;;5003593;28;20045;-38
2022/07/27 00:14:58;;;;;;;2.80;1.60;;;16.00;99.90;;;;;;5003786;28;20037;-39
2022/07/27 00:17:25;;;;;;;1.60;1.50;;;15.60;99.90;;;;;;5004615;28;20034;-36
2022/07/27 00:19:51;;;;;;;2.35;1.52;;;15.80;99.90;;;;;;5003338;28;20124;-39
2022/07/27 00:22:17;;;;;;;2.95;1.60;;;16.00;99.90;;;;;;5007762;28;20614;-36
2022/07/27 00:24:43;;;;;;;3.45;1.50;;;16.10;98.50;;;;;;5001847;28;20052;-37
2022/07/27 00:27:08;;;;;;;1.63;1.52;;;16.10;98.40;;;;;;5002157;28;20113;-39
2022/07/27 00:29:34;;;;;;;1.63;1.50;;;16.20;98.10;;;;;;5004231;28;20514;-38
2022/07/27 00:32:00;;;;;;;2.30;1.60;;;16.20;98.20;;;;;;5001787;28;20089;-39
2022/07/27 00:34:26;;;;;;;1.40;1.30;;;16.30;98.60;;;;;;5004527;28;20466;-37
2022/07/27 00:36:51;;;;;;;1.60;1.50;;;16.30;97.80;;;;;;5003446;28;20044;-38
2022/07/27 00:39:17;;;;;;;1.80;1.70;;;16.30;97.40;;;;;;5002751;28;20041;-40
2022/07/27 00:41:43;;;;;;;1.90;1.70;;;16.30;96.90;;;;;;5003304;28;20744;-39
2022/07/27 00:44:09;;;;;;;3.53;1.70;;;16.30;97.20;;;;;;5004871;28;20026;-39
2022/07/27 00:46:35;;;;;;;1.55;1.45;;;16.20;98.40;;;;;;5002667;28;20065;-38
2022/07/27 00:49:01;;;;;;;3.35;1.60;;;16.20;98.40;;;;;;5003309;28;20140;-39
2022/07/27 00:51:27;;;;;;;1.70;1.60;;;15.70;99.90;;;;;;5004267;28;20479;-37
2022/07/27 00:53:53;;;;;;;1.45;1.35;;;15.40;99.90;;;;;;5003948;28;20038;-38
2022/07/27 00:56:20;;;;;;;3.55;1.48;;;15.20;99.90;;;;;;5003817;28;20483;-37
2022/07/27 00:58:49;;;;;;;1.70;1.52;;;15.10;99.90;;;;;;5002888;28;20216;-39
2022/07/27 01:01:15;;;;;;;2.10;1.83;;;15.30;99.90;;;;;;5003554;28;20038;-39
2022/07/27 01:03:41;;;;;;;1.60;1.50;;;15.30;99.90;;;;;;5001613;28;21464;-36
2022/07/27 01:06:07;;;;;;;1.85;1.73;;;15.40;99.90;;;;;;5002516;28;20140;-38
2022/07/27 01:08:34;;;;;;;3.55;1.73;;;15.00;99.90;;;;;;5005013;28;20044;-39
2022/07/27 01:11:01;;;;;;;1.90;1.73;;;14.70;99.90;;;;;;5002509;28;20030;-39
2022/07/27 01:13:27;;;;;;;2.28;1.95;;;14.70;99.90;;;;;;5003343;28;20029;-38
2022/07/27 01:15:53;;;;;;;2.50;1.80;;;14.60;99.90;;;;;;5004865;28;20038;-36
2022/07/27 01:18:31;;;;;;;1.70;1.60;;;14.70;99.90;;;;;;5003259;28;20044;-36
2022/07/27 01:20:58;;;;;;;1.58;1.48;;;15.00;99.90;;;;;;5003946;28;20045;-36
2022/07/27 01:23:25;;;;;;;1.77;1.67;;;15.10;99.90;;;;;;5004012;28;20029;-36
2022/07/27 01:25:51;;;;;;;2.28;1.63;;;15.30;99.90;;;;;;5002100;28;20030;-36
2022/07/27 01:28:17;;;;;;;2.13;1.55;;;15.40;99.90;;;;;;5002354;28;20092;-38
2022/07/27 01:30:43;;;;;;;1.60;1.50;;;15.50;99.90;;;;;;5003566;28;20045;-36
2022/07/27 01:33:09;;;;;;;2.00;1.70;;;15.50;99.90;;;;;;5000478;28;20045;-38
2022/07/27 01:35:39;;;;;;;2.42;1.40;;;15.50;99.90;;;;;;5000531;28;20025;-36
2022/07/27 01:38:06;;;;;;;3.35;1.90;;;15.60;99.90;;;;;;5001483;28;20036;-39
2022/07/27 01:40:32;;;;;;;3.37;1.60;;;15.50;99.90;;;;;;5002964;28;20121;-39
2022/07/27 01:42:59;;;;;;;1.75;1.63;;;15.50;99.90;;;;;;5002427;28;20294;-38
2022/07/27 01:45:24;;;;;;;1.60;1.50;;;15.50;99.90;;;;;;5001810;28;20046;-37
2022/07/27 01:47:50;;;;;;;3.75;1.80;;;15.60;99.90;;;;;;5002440;28;20026;-39
2022/07/27 01:50:15;;;;;;;1.70;1.60;;;15.70;99.90;;;;;;5001596;28;20479;-36
2022/07/27 01:52:41;;;;;;;1.55;1.45;;;15.60;99.90;;;;;;5002025;28;20038;-37
2022/07/27 01:55:09;;;;;;;1.90;1.50;;;15.60;99.90;;;;;;5002021;28;20054;-38
2022/07/27 01:57:35;;;;;;;1.70;1.60;;;15.70;99.90;;;;;;5002026;28;20032;-36
2022/07/27 02:00:05;;;;;;;1.80;1.60;;;15.70;99.90;;;;;;5002379;28;20038;-39
2022/07/27 02:02:31;;;;;;;1.70;1.60;;;15.80;99.90;;;;;;5000832;28;20042;-39
2022/07/27 02:04:57;;;;;;;1.83;1.73;;;15.80;99.90;;;;;;5001012;28;20034;-40
2022/07/27 02:07:23;;;;;;;2.15;1.70;;;15.80;99.90;;;;;;5002991;28;20025;-40
2022/07/27 02:09:48;;;;;;;2.85;1.70;;;15.80;99.90;;;;;;5001140;28;20032;-39
2022/07/27 02:14:58;;;;;;;1.55;1.45;;;15.70;99.90;;;;;;5001212;28;20161;-37
2022/07/27 02:17:23;;;;;;;1.88;1.75;;;15.80;99.90;;;;;;5003589;28;20109;-38
2022/07/27 02:19:49;;;;;;;1.73;1.60;;;15.80;99.90;;;;;;5002022;28;20041;-39
2022/07/27 02:22:15;;;;;;;2.88;1.90;;;15.90;99.90;;;;;;4999778;28;20088;-39
2022/07/27 02:24:41;;;;;;;2.10;1.90;;;15.90;99.90;;;;;;5000728;28;20109;-38
2022/07/27 02:27:07;;;;;;;1.95;1.40;;;15.80;99.90;;;;;;4998642;28;20034;-37
2022/07/27 02:29:32;;;;;;;1.92;1.83;;;15.60;99.90;;;;;;5000866;28;20059;-40
2022/07/27 02:31:58;;;;;;;3.25;1.80;;;15.60;99.90;;;;;;5000478;28;20037;-36
2022/07/27 02:34:23;;;;;;;2.00;1.80;;;15.70;99.90;;;;;;5002718;28;20463;-37
2022/07/27 02:36:49;;;;;;;1.85;1.70;;;15.80;99.90;;;;;;5002225;28;20037;-39
2022/07/27 02:39:15;;;;;;;3.60;1.58;;;15.90;99.90;;;;;;5002389;28;20525;-36
2022/07/27 02:41:40;;;;;;;1.88;1.77;;;15.90;99.90;;;;;;5001520;28;20076;-39
2022/07/27 02:44:06;;;;;;;3.10;1.70;;;15.60;99.90;;;;;;5001590;28;20057;-40
2022/07/27 02:46:31;;;;;;;3.13;1.95;;;15.40;99.90;;;;;;5002866;28;20041;-36
2022/07/27 02:48:57;;;;;;;1.92;1.83;;;15.40;99.90;;;;;;5001984;28;20438;-40
2022/07/27 02:51:22;;;;;;;1.80;1.70;;;15.40;99.90;;;;;;5000487;28;20037;-38
2022/07/27 02:53:49;;;;;;;2.78;1.80;;;15.40;99.90;;;;;;5000522;28;20042;-39
2022/07/27 02:56:14;;;;;;;1.90;1.80;;;15.50;99.90;;;;;;5003943;28;20034;-38
2022/07/27 02:58:40;;;;;;;2.10;2.00;;;15.60;99.90;;;;;;5005084;28;20037;-39
2022/07/27 03:01:06;;;;;;;1.92;1.77;;;15.70;99.90;;;;;;5004450;28;20052;-40
2022/07/27 03:03:31;;;;;;;2.17;2.05;;;15.70;99.90;;;;;;5003258;28;20029;-40
2022/07/27 03:05:57;;;;;;;2.10;1.90;;;15.80;99.90;;;;;;5004693;28;20030;-40
2022/07/27 03:08:22;;;;;;;3.47;1.90;;;15.70;99.90;;;;;;5004419;28;20110;-36
2022/07/27 03:10:48;;;;;;;3.85;2.10;;;15.80;99.90;;;;;;5005040;28;20041;-40
2022/07/27 03:13:14;;;;;;;2.10;2.00;;;15.80;99.90;;;;;;5005065;28;20073;-37
2022/07/27 03:15:39;;;;;;;2.58;2.00;;;15.80;99.90;;;;;;5005121;28;20042;-38
2022/07/27 03:18:05;;;;;;;2.45;2.28;;;15.90;99.90;;;;;;5004584;28;20164;-39
2022/07/27 03:20:31;;;;;;;3.67;2.20;;;15.80;99.90;;;;;;5006736;28;20030;-39
2022/07/27 03:22:56;;;;;;;2.85;2.00;;;15.80;99.90;;;;;;5004829;28;20415;-37
2022/07/27 03:25:22;;;;;;;3.15;1.85;;;15.80;99.90;;;;;;5004697;28;20134;-36
2022/07/27 03:27:48;;;;;;;3.17;1.90;;;15.80;99.90;;;;;;5004759;28;20075;-39
2022/07/27 03:30:15;;;;;;;1.85;1.75;;;15.80;99.90;;;;;;5003423;28;20029;-38
2022/07/27 03:32:41;;;;;;;2.28;1.85;;;15.70;99.90;;;;;;5005052;28;20133;-39
2022/07/27 03:35:07;;;;;;;3.33;1.95;;;15.80;99.90;;;;;;5004647;28;20562;-39
2022/07/27 03:37:33;;;;;;;1.98;1.83;;;15.90;99.90;;;;;;5004315;28;20026;-37
2022/07/27 03:39:58;;;;;;;2.45;1.80;;;15.80;99.90;;;;;;5005711;28;20412;-37
2022/07/27 03:42:24;;;;;;;1.90;1.80;;;15.80;99.90;;;;;;5003174;28;20041;-36
2022/07/27 03:44:50;;;;;;;3.45;2.00;;;15.80;99.90;;;;;;5004163;28;20137;-39
2022/07/27 03:47:16;;;;;;;2.33;1.95;;;15.80;99.90;;;;;;5005436;28;20026;-38
2022/07/27 03:49:42;;;;;;;2.53;1.88;;;15.80;99.90;;;;;;5001652;28;20034;-39
2022/07/27 03:52:08;;;;;;;2.30;2.05;;;15.80;99.90;;;;;;5004131;28;20553;-39
2022/07/27 03:54:34;;;;;;;2.13;2.00;;;15.90;99.90;;;;;;5004421;28;20048;-39
2022/07/27 03:57:01;;;;;;;2.03;1.92;;;15.90;99.90;;;;;;5005107;28;20029;-37
2022/07/27 03:59:26;;;;;;;3.55;2.17;;;15.70;99.90;;;;;;5002298;28;20065;-37
2022/07/27 04:01:52;;;;;;;2.80;2.60;;;15.70;99.90;;;;;;5002442;28;20149;-40
2022/07/27 04:04:17;;;;;;;5.10;2.15;;;15.60;99.90;;;;;;5020494;28;20022;-39
2022/07/27 04:06:43;;;;;;;4.38;1.92;;;15.60;99.90;;;;;;5002703;28;20038;-38
2022/07/27 04:09:09;;;;;;;2.13;1.70;;;15.60;99.90;;;;;;5003910;28;20029;-36
2022/07/27 04:11:35;;;;;;;2.60;2.20;;;15.70;99.90;;;;;;5003672;28;20411;-37
2022/07/27 04:14:01;;;;;;;2.20;2.10;;;15.70;99.90;;;;;;5002330;28;20025;-38
2022/07/27 04:16:27;;;;;;;2.70;2.20;;;15.80;99.90;;;;;;5002289;28;20030;-40
2022/07/27 04:18:52;;;;;;;3.42;2.20;;;15.70;99.90;;;;;;5003707;28;20113;-39
2022/07/27 04:21:18;;;;;;;2.40;2.20;;;15.60;99.90;;;;;;5004183;28;20145;-39
2022/07/27 04:23:43;;;;;;;2.80;1.90;;;15.70;99.90;;;;;;5002538;28;20064;-40
2022/07/27 04:26:09;;;;;;;3.75;1.88;;;15.70;99.90;;;;;;5003480;28;20058;-38
2022/07/27 04:28:35;;;;;;;2.00;1.85;;;15.70;99.90;;;;;;5004888;28;20030;-37
2022/07/27 04:31:00;;;;;;;3.10;1.77;;;15.70;99.90;;;;;;5004315;28;20438;-39
2022/07/27 04:33:26;;;;;;;2.50;1.88;;;15.80;99.90;;;;;;5003433;28;20041;-38
2022/07/27 04:35:51;;;;;;;2.22;2.03;;;15.90;99.90;;;;;;5003251;28;20034;-36
2022/07/27 04:38:17;;;;;;;3.17;2.10;;;15.90;99.90;;;;;;5002949;28;20071;-39
2022/07/27 04:40:43;;;;;;;3.08;2.03;;;16.00;99.90;;;;;;5001703;28;20440;-38
2022/07/27 04:43:08;;;;;;;3.33;2.03;;;16.10;99.90;;;;;;5002653;28;20029;-38
2022/07/27 04:45:34;;;;;;;2.25;2.10;;;16.10;99.90;;;;;;5019039;28;20033;-37
2022/07/27 04:48:08;;;;;;;5.03;2.17;;;16.20;99.90;;;;;;5000984;28;21380;-39
2022/07/27 04:50:44;;;;;;;3.15;1.98;;;16.30;99.90;;;;;;5001539;28;20026;-37
2022/07/27 04:53:10;;;;;;;2.60;2.40;;;16.30;99.90;;;;;;5000565;28;20026;-40
2022/07/27 04:55:37;;;;;;;2.95;2.10;;;16.10;99.90;;;;;;5001385;28;20034;-39
2022/07/27 04:58:02;;;;;;;2.50;2.10;;;16.10;99.90;;;;;;5004233;28;20038;-36
2022/07/27 05:00:28;;;;;;;2.72;2.13;;;16.10;99.90;;;;;;5002418;28;20068;-38
2022/07/27 05:02:54;;;;;;;2.10;2.00;;;16.10;99.90;;;;;;5003470;28;20049;-37
2022/07/27 05:05:20;;;;;;;2.97;2.33;;;16.10;99.90;;;;;;5004429;28;20415;-38
2022/07/27 05:07:46;;;;;;;2.30;2.10;;;16.10;99.90;;;;;;5003991;28;20502;-38
2022/07/27 05:10:12;;;;;;;3.40;2.47;;;16.20;99.90;;;;;;5003784;28;20033;-39
2022/07/27 05:12:37;;;;;;;2.70;2.50;;;16.20;99.90;;;;;;5001890;28;20030;-39
2022/07/27 05:15:03;;;;;;;3.03;2.22;;;16.30;99.90;;;;;;5001742;28;20041;-36
2022/07/27 05:17:29;;;;;;;2.70;2.50;;;16.30;99.90;;;;;;5001409;28;20025;-37
2022/07/27 05:19:55;;;;;;;2.60;2.40;;;16.30;99.90;;;;;;5000139;28;20849;-38
2022/07/27 05:22:20;;;;;;;2.88;2.45;;;16.40;99.90;;;;;;5003727;28;20034;-38
2022/07/27 05:24:46;;;;;;;2.80;2.53;;;16.40;99.90;;;;;;5001588;28;20026;-39
2022/07/27 05:27:12;;;;;;;4.82;2.78;;;16.60;99.90;;;;;;5001619;28;20026;-40
2022/07/27 05:29:38;;;;;;;4.68;2.40;;;16.80;99.90;;;;;;5003037;28;20112;-36
2022/07/27 05:32:04;;;;;;;2.10;1.95;;;17.00;99.90;;;;;;5002353;28;20038;-39
2022/07/27 05:34:30;;;;;;;2.67;2.25;;;17.10;99.90;;;;;;5001871;28;20057;-39
2022/07/27 05:36:55;;;;;;;2.25;2.05;;;17.20;99.40;;;;;;5002827;28;20630;-37
2022/07/27 05:39:21;;;;;;;2.28;2.08;;;17.10;99.10;;;;;;5003634;28;20034;-38
2022/07/27 05:41:47;;;;;;;2.95;2.08;;;17.20;99.90;;;;;;5003087;28;22224;-37
2022/07/27 05:44:13;;;;;;;2.88;2.25;;;17.20;99.90;;;;;;5001383;28;20033;-40
2022/07/27 05:46:39;;;;;;;2.20;2.00;;;17.20;99.90;;;;;;5002153;28;20120;-37
2022/07/27 05:49:05;;;;;;;2.72;2.15;;;17.20;99.90;;;;;;5004143;28;20551;-38
2022/07/27 05:51:30;;;;;;;2.15;2.05;;;17.20;99.90;;;;;;5005920;28;20105;-37
2022/07/27 05:53:57;;;;;;;2.10;2.00;;;17.30;99.90;;;;;;5003931;28;20049;-39
2022/07/27 05:56:23;;;;;;;2.28;2.00;;;17.50;99.90;;;;;;5005969;28;20041;-37
2022/07/27 05:58:48;;;;;;;2.00;1.90;;;17.60;99.90;;;;;;5006539;28;20443;-39
2022/07/27 06:01:14;;;;;;;2.25;2.05;;;17.70;99.30;;;;;;5004493;28;20042;-37
2022/07/27 06:03:40;;;;;;;2.10;1.80;;;17.80;99.00;;;;;;5004267;28;20514;-39
2022/07/27 06:08:51;;;;;;;2.95;2.17;;;18.10;98.50;;;;;;5003889;28;20040;-37
2022/07/27 06:11:16;;;;;;;2.92;2.03;;;18.20;99.30;;;;;;5006187;28;20411;-40
2022/07/27 06:13:42;;;;;;;2.28;2.13;;;18.30;99.60;;;;;;5004243;28;20026;-40
2022/07/27 06:16:08;;;;;;;3.95;2.20;;;18.40;99.90;;;;;;5006169;28;20057;-37
2022/07/27 06:18:34;;;;;;;4.65;2.13;;;18.40;99.90;;;;;;5007264;28;20383;-40
2022/07/27 06:21:01;;;;;;;2.42;2.05;;;18.50;98.10;;;;;;5007621;28;20037;-40
2022/07/27 06:23:28;;;;;;;3.33;1.98;;;18.50;98.10;;;;;;5008950;28;20061;-39
2022/07/27 06:25:54;;;;;;;7.28;2.42;;;18.60;98.30;;;;;;5008583;28;20030;-39
2022/07/27 06:28:20;;;;;;;2.60;2.40;;;18.70;98.30;;;;;;5008520;28;20045;-39
2022/07/27 06:30:46;;;;;;;3.25;1.92;;;18.80;98.40;;;;;;5006994;28;20091;-39
2022/07/27 06:33:13;;;;;;;2.25;2.00;;;18.90;97.70;;;;;;5005026;28;20030;-37
2022/07/27 06:35:39;;;;;;;2.15;2.00;;;19.00;96.40;;;;;;5009582;28;20042;-37
2022/07/27 06:38:05;;;;;;;2.15;2.05;;;19.00;94.10;;;;;;5009346;28;20033;-40
2022/07/27 06:40:31;;;;;;;4.55;2.25;;;18.90;94.30;;;;;;5008653;28;20038;-40
2022/07/27 06:42:57;;;;;;;5.03;2.33;;;19.00;94.80;;;;;;5008772;28;20033;-38
2022/07/27 06:45:23;;;;;;;2.67;2.17;;;19.10;96.10;;;;;;5007732;28;20087;-38
2022/07/27 06:47:50;;;;;;;2.00;1.90;;;19.10;95.00;;;;;;5008747;28;20026;-37
2022/07/27 06:50:17;;;;;;;2.53;2.08;;;19.20;96.70;;;;;;5008226;28;20030;-39
2022/07/27 06:52:43;;;;;;;2.88;2.30;;;19.20;96.20;;;;;;5006153;28;20038;-39
2022/07/27 06:55:09;;;;;;;2.03;1.92;;;19.30;95.00;;;;;;5008207;28;20451;-38
2022/07/27 06:57:34;;;;;;;2.22;2.03;;;19.40;95.90;;;;;;5007411;28;20034;-39
2022/07/27 07:00:00;;;;;;;1.80;1.70;;;19.70;97.00;;;;;;5008629;28;20049;-38
2022/07/27 07:02:26;;;;;;;2.95;2.20;;;20.00;94.30;;;;;;5008337;28;20053;-40
2022/07/27 07:04:52;;;;;;;2.38;2.05;;;20.20;93.20;;;;;;5006927;28;20049;-37
2022/07/27 07:07:19;;;;;;;2.15;1.98;;;20.30;92.60;;;;;;5007306;28;20026;-36
2022/07/27 07:09:45;;;;;;;2.53;2.00;;;20.40;90.30;;;;;;5005054;28;20022;-36
2022/07/27 07:12:10;;;;;;;4.32;2.22;;;20.60;90.80;;;;;;5008277;28;20029;-38
2022/07/27 07:14:36;;;;;;;2.22;2.00;;;20.70;90.60;;;;;;5008883;28;20030;-39
2022/07/27 07:17:02;;;;;;;1.98;1.77;;;20.80;87.70;;;;;;5005683;28;20029;-39
2022/07/27 07:19:27;;;;;;;1.80;1.70;;;21.00;83.00;;;;;;5008321;28;20088;-37
2022/07/27 07:21:53;;;;;;;3.72;1.77;;;21.40;79.70;;;;;;5008455;28;20053;-39
2022/07/27 07:24:18;;;;;;;2.25;1.90;;;21.70;72.90;;;;;;5006117;28;20033;-38
2022/07/27 07:26:44;;;;;;;3.47;1.90;;;21.60;70.10;;;;;;5004733;28;20038;-37
2022/07/27 07:29:10;;;;;;;1.90;1.80;;;21.60;72.80;;;;;;5006194;28;20038;-38
2022/07/27 07:31:36;;;;;;;2.05;1.85;;;21.50;69.50;;;;;;5004759;28;20038;-38
2022/07/27 07:34:03;;;;;;;1.90;1.80;;;21.60;73.60;;;;;;5007282;28;20041;-36
2022/07/27 07:36:29;;;;;;;1.88;1.73;;;21.70;70.30;;;;;;5007233;28;20026;-39
2022/07/27 07:38:54;;;;;;;1.92;1.80;;;21.70;70.10;;;;;;5008151;28;20079;-38
2022/07/27 07:41:22;;;;;;;1.85;1.70;;;21.80;67.20;;;;;;5010434;28;20125;-39
2022/07/27 07:43:47;;;;;;;3.50;2.03;;;21.80;67.50;;;;;;5011402;28;20057;-37
2022/07/27 07:46:13;;;;;;;2.85;2.00;;;22.00;68.30;;;;;;5009940;28;20068;-37
2022/07/27 07:48:38;;;;;;;3.65;1.77;;;22.20;66.10;;;;;;5011977;28;20484;-37
2022/07/27 07:51:04;;;;;;;2.97;1.90;;;22.30;68.50;;;;;;5012172;28;20026;-36
2022/07/27 07:53:30;;;;;;;3.33;1.65;;;22.40;64.50;;;;;;5010855;28;20044;-39
2022/07/27 07:55:56;;;;;;;1.88;1.70;;;22.50;65.90;;;;;;5012820;28;20513;-39
2022/07/27 07:58:22;;;;;;;3.10;1.77;;;22.50;64.50;;;;;;5012594;28;20034;-37
2022/07/27 08:00:48;;;;;;;3.35;2.03;;;22.40;63.80;;;;;;5007159;28;20048;-38
2022/07/27 08:03:14;;;;;;;1.95;1.73;;;22.50;65.10;;;;;;5013494;28;20022;-37
2022/07/27 08:05:40;;;;;;;2.90;1.85;;;22.60;62.90;;;;;;5009798;28;20433;-35
2022/07/27 08:08:05;;;;;;;2.28;1.58;;;22.70;63.30;;;;;;5012558;28;20030;-36
2022/07/27 08:10:31;;;;;;;1.88;1.77;;;22.60;65.20;;;;;;5012724;28;20133;-39
2022/07/27 08:12:57;;;;;;;2.92;1.63;;;22.80;61.20;;;;;;5008148;28;20022;-38
2022/07/27 08:15:24;;;;;;;2.40;1.58;;;23.00;63.40;;;;;;5011924;28;20030;-38
2022/07/27 08:17:49;;;;;;;3.47;1.90;;;22.90;60.60;;;;;;5010610;28;20037;-37
2022/07/27 08:20:16;;;;;;;1.85;1.73;;;22.90;61.10;;;;;;5011845;28;20042;-36
2022/07/27 08:22:43;;;;;;;1.85;1.75;;;22.90;64.00;;;;;;5013121;28;20040;-39
2022/07/27 08:25:09;;;;;;;3.10;1.90;;;22.90;65.00;;;;;;5014381;28;20093;-36
2022/07/27 08:27:35;;;;;;;1.80;1.70;;;22.90;65.00;;;;;;5013219;28;20507;-39
2022/07/27 08:30:01;;;;;;;2.83;1.85;;;23.00;62.90;;;;;;5011791;28;20030;-38
2022/07/27 08:32:27;;;;;;;2.70;1.70;;;23.10;61.20;;;;;;5010671;28;20045;-35
2022/07/27 08:34:54;;;;;;;2.33;1.80;;;23.00;61.50;;;;;;5009208;28;20033;-39
2022/07/27 08:37:19;;;;;;;2.55;1.80;;;23.20;60.30;;;;;;5007962;28;20034;-39
2022/07/27 08:39:45;;;;;;;2.80;1.52;;;23.30;62.50;;;;;;5008982;28;20041;-39
2022/07/27 08:42:10;;;;;;;2.33;1.85;;;23.30;58.90;;;;;;5010877;28;20395;-37
2022/07/27 08:44:40;;;;;;;1.85;1.70;;;23.40;58.90;;;;;;5006951;28;20117;-40
2022/07/27 08:47:08;;;;;;;2.60;1.90;;;23.70;58.70;;;;;;5006265;28;20041;-37
2022/07/27 08:49:34;;;;;;;;;;;23.70;58.40;;;;;;5006019;28;20030;-35
2022/07/27 08:52:01;;;;;;;5.47;2.08;;;23.50;58.90;;;;;;5007881;28;19997;-39
2022/07/27 08:54:27;;;;;;;2.55;1.70;;;23.50;60.50;;;;;;5005441;28;20112;-38
2022/07/27 08:56:53;;;;;;;1.60;1.50;;;23.50;57.80;;;;;;5005372;28;20719;-39
2022/07/27 08:59:19;;;;;;;1.63;1.40;;;23.50;56.60;;;;;;5007983;28;20034;-38
2022/07/27 09:01:44;;;;;;;1.50;1.40;;;23.60;55.80;;;;;;5006397;28;20042;-38
2022/07/27 09:04:10;;;;;;;3.58;2.00;;;23.70;57.80;;;;;;5003950;28;20061;-37
2022/07/27 09:06:44;;;;;;;2.53;1.77;;;23.90;58.10;;;;;;5007972;28;20030;-39
2022/07/27 09:09:11;;;;;;;1.77;1.48;;;24.20;54.70;;;;;;5008707;28;20030;-38
2022/07/27 09:11:37;;;;;;;1.88;1.77;;;24.10;53.90;;;;;;5008755;28;20033;-38
2022/07/27 09:14:06;;;;;;;2.17;1.80;;;24.30;55.00;;;;;;5005928;28;20068;-36
2022/07/27 09:16:33;;;;;;;5.15;1.95;;;24.70;54.10;;;;;;5009177;28;20033;-38
2022/07/27 09:19:02;;;;;;;2.38;2.17;;;24.90;53.00;;;;;;5008163;28;20438;-35
2022/07/27 09:21:27;;;;;;;3.42;1.90;;;24.70;51.70;;;;;;5008196;28;20037;-39
2022/07/27 09:24:09;;;;;;;1.75;1.65;;;24.50;52.30;;;;;;5008383;28;20040;-39
2022/07/27 09:26:36;;;;;;;1.92;1.70;;;24.40;50.80;;;;;;5008007;28;20117;-39
2022/07/27 09:29:04;;;;;;;1.80;1.55;;;24.60;53.30;;;;;;5008585;28;20033;-39
2022/07/27 09:31:30;;;;;;;5.78;1.88;;;24.70;53.10;;;;;;5007066;28;20030;-39
2022/07/27 09:33:59;;;;;;;2.30;1.75;;;24.80;52.70;;;;;;5007934;28;20026;-36
2022/07/27 09:36:27;;;;;;;3.63;1.95;;;24.80;51.30;;;;;;5006701;28;20030;-39
2022/07/27 09:38:55;;;;;;;2.45;1.77;;;25.40;51.40;;;;;;5004122;28;20042;-38
2022/07/27 09:41:22;;;;;;;2.38;1.95;;;25.30;51.40;;;;;;5004554;28;20062;-39
2022/07/27 09:43:53;;;;;;;2.60;2.00;;;25.40;52.20;;;;;;5005462;28;20491;-38
2022/07/27 09:46:33;;;;;;;3.05;2.13;;;25.10;50.90;;;;;;5006137;28;20042;-39
2022/07/27 09:48:59;;;;;;;2.05;1.70;;;24.90;51.10;;;;;;5007714;28;20117;-39
2022/07/27 09:51:24;;;;;;;2.92;1.70;;;24.60;51.40;;;;;;5006659;28;20125;-37
2022/07/27 09:53:55;;;;;;;2.00;1.90;;;24.60;51.00;;;;;;5008186;28;20058;-37
2022/07/27 09:56:29;;;;;;;3.17;2.10;;;24.30;50.30;;;;;;5009477;28;20034;-38
2022/07/27 09:59:01;;;;;;;1.88;1.63;;;24.00;51.30;;;;;;5008011;28;20040;-39
2022/07/27 10:01:31;;;;;;;1.88;1.65;;;23.90;49.90;;;;;;5006595;28;20038;-39
2022/07/27 10:03:59;;;;;;;2.13;1.75;;;23.60;51.30;;;;;;5007416;28;20076;-36
2022/07/27 10:06:26;;;;;;;2.00;1.90;;;23.90;52.60;;;;;;5009711;28;20045;-36
2022/07/27 10:08:54;;;;;;;3.40;2.35;;;24.30;50.50;;;;;;5004521;28;20030;-39
2022/07/27 10:11:21;;;;;;;2.03;1.63;;;24.50;48.00;;;;;;5004541;28;20038;-36
2022/07/27 10:13:48;;;;;;;2.45;1.80;;;25.00;49.80;;;;;;5007657;28;20060;-38
2022/07/27 10:16:17;;;;;;;2.83;1.42;;;25.60;48.10;;;;;;5007343;28;20742;-37
2022/07/27 10:18:55;;;;;;;2.47;1.33;;;26.00;44.40;;;;;;5006494;28;20045;-37
2022/07/27 10:21:22;;;;;;;1.95;1.35;;;25.70;45.80;;;;;;5007002;28;20034;-39
2022/07/27 10:24:02;;;;;;;2.58;1.80;;;25.40;44.30;;;;;;5006069;28;20124;-36
2022/07/27 10:26:38;;;;;;;2.72;1.60;;;25.10;46.50;;;;;;5003673;28;20510;-38
2022/07/27 10:29:04;;;;;;;1.85;1.50;;;24.80;48.00;;;;;;5007858;28;20022;-36
2022/07/27 10:31:34;;;;;;;1.92;1.65;;;25.10;46.90;;;;;;5010638;28;20316;-39
2022/07/27 10:34:02;;;;;;;2.83;1.42;;;25.10;43.80;;;;;;5008684;28;20094;-36
2022/07/27 10:36:30;;;;;;;5.00;1.85;;;25.30;44.70;;;;;;5008726;28;20356;-39
2022/07/27 10:39:00;;;;;;;1.52;1.42;;;25.60;45.10;;;;;;5006342;28;20041;-39
2022/07/27 10:41:40;;;;;;;1.45;1.13;;;25.70;40.10;;;;;;5002744;28;20442;-37
2022/07/27 10:44:17;;;;;;;4.53;1.50;;;25.60;40.80;;;;;;5005789;28;20144;-39
2022/07/27 10:46:44;;;;;;;1.70;1.58;;;25.40;41.30;;;;;;5004152;28;20394;-39
2022/07/27 10:49:22;;;;;;;1.45;1.35;;;25.40;42.80;;;;;;5005341;28;20034;-37
2022/07/27 10:51:48;;;;;;;2.03;1.50;;;25.40;43.90;;;;;;5003182;28;20027;-38
2022/07/27 10:54:33;;;;;;;2.63;1.63;;;25.20;43.50;;;;;;5002754;28;20038;-39
2022/07/27 10:56:59;;;;;;;19.30;2.45;;;25.30;45.20;;;;;;5005014;28;20037;-39
2022/07/27 10:59:42;;;;;;;3.15;1.50;;;25.40;42.90;;;;;;5003724;28;20569;-39
2022/07/27 11:02:09;;;;;;;1.55;1.42;;;25.50;43.20;;;;;;5002034;28;20034;-38
2022/07/27 11:04:47;;;;;;;1.90;1.65;;;25.40;43.40;;;;;;5004583;28;20495;-39
2022/07/27 11:07:24;;;;;;;2.45;1.70;;;25.00;45.20;;;;;;5008500;28;20042;-40
2022/07/27 11:09:51;;;;;;;1.77;1.67;;;24.80;47.70;;;;;;5006351;28;20034;-37
2022/07/27 11:12:18;;;;;;;3.92;1.67;;;24.70;48.00;;;;;;5006198;28;20501;-39
2022/07/27 11:14:53;;;;;;;2.30;1.60;;;24.70;47.70;;;;;;5007714;28;20030;-39
2022/07/27 11:17:22;;;;;;;3.00;1.63;;;24.60;46.60;;;;;;5011716;28;20025;-39
2022/07/27 11:19:53;;;;;;;2.03;1.50;;;24.70;45.20;;;;;;5011324;28;20033;-37
2022/07/27 11:22:39;;;;;;;2.38;1.80;;;24.90;47.10;;;;;;5011442;28;20026;-37
2022/07/27 11:25:05;;;;;;;2.10;2.00;;;24.80;45.70;;;;;;5011514;28;20053;-38
2022/07/27 11:27:32;;;;;;;4.22;2.00;;;24.70;46.80;;;;;;5012347;28;20036;-38
2022/07/27 11:29:57;;;;;;;1.90;1.77;;;24.80;48.50;;;;;;5009699;28;20415;-38
2022/07/27 11:32:23;;;;;;;2.10;1.90;;;25.00;48.10;;;;;;5009090;28;20092;-39
2022/07/27 11:34:49;;;;;;;3.20;1.92;;;25.30;45.90;;;;;;5008839;28;20041;-36
2022/07/27 11:37:22;;;;;;;4.20;2.00;;;25.30;45.50;;;;;;5007840;28;20035;-37
2022/07/27 11:39:57;;;;;;;2.42;2.00;;;25.50;44.60;;;;;;5009734;28;20026;-38
2022/07/27 11:42:23;;;;;;;2.15;2.05;;;25.70;46.30;;;;;;5010114;28;20030;-39
2022/07/27 11:44:51;;;;;;;2.58;2.10;;;26.30;45.70;;;;;;5005118;28;20032;-39
2022/07/27 11:47:19;;;;;;;3.03;2.17;;;26.10;47.00;;;;;;5009951;28;20430;-37
2022/07/27 11:49:44;;;;;;;;;;;26.00;45.60;;;;;;5010395;28;20034;-39
2022/07/27 11:52:10;;;;;;;2.55;1.92;;;25.30;44.90;;;;;;5007159;28;20008;-39
2022/07/27 11:54:38;;;;;;;2.33;2.13;;;25.00;46.70;;;;;;5003691;28;20133;-36
2022/07/27 11:57:08;;;;;;;2.30;2.08;;;25.10;45.90;;;;;;5008464;28;20074;-39
2022/07/27 11:59:38;;;;;;;2.15;1.92;;;25.20;46.00;;;;;;5010401;28;20774;-39
2022/07/27 12:02:09;;;;;;;2.60;2.13;;;25.40;45.30;;;;;;5006767;28;20492;-39
2022/07/27 12:04:37;;;;;;;2.20;2.00;;;25.40;45.90;;;;;;5009738;28;20029;-40
2022/07/27 12:07:11;;;;;;;2.88;1.85;;;25.40;43.80;;;;;;5009372;28;20084;-39
2022/07/27 12:09:44;;;;;;;5.88;1.83;;;25.30;45.10;;;;;;5009886;28;20049;-39
2022/07/27 12:12:16;;;;;;;2.00;1.80;;;25.00;43.30;;;;;;5009707;28;20666;-38
2022/07/27 12:15:04;;;;;;;2.20;1.70;;;24.70;44.90;;;;;;5011809;28;20026;-36
2022/07/27 12:17:37;;;;;;;3.20;1.80;;;24.70;44.60;;;;;;5004848;28;20120;-37
2022/07/27 12:20:03;;;;;;;2.35;1.83;;;24.80;45.60;;;;;;5007633;28;20385;-36
2022/07/27 12:22:38;;;;;;;1.83;1.65;;;24.80;44.90;;;;;;5010212;28;20034;-37
2022/07/27 12:25:28;;;;;;;1.70;1.60;;;25.10;44.80;;;;;;5011136;28;20172;-37
2022/07/27 12:28:04;;;;;;;1.88;1.60;;;25.40;45.80;;;;;;5009039;28;20391;-39
2022/07/27 12:30:43;;;;;;;1.85;1.70;;;25.50;43.20;;;;;;5009203;28;20022;-39
2022/07/27 12:33:35;;;;;;;3.35;1.70;;;25.30;42.10;;;;;;5009575;28;20033;-37
2022/07/27 12:36:03;;;;;;;1.52;1.42;;;25.30;43.90;;;;;;5009168;28;20434;-38
2022/07/27 12:38:42;;;;;;;3.83;2.53;;;25.10;42.30;;;;;;5008191;28;20026;-39
2022/07/27 12:41:07;;;;;;;3.53;1.80;;;25.10;43.30;;;;;;5008749;28;20029;-37
2022/07/27 12:43:33;;;;;;;3.67;2.13;;;25.40;44.30;;;;;;5010258;28;20112;-39
2022/07/27 12:46:10;;;;;;;1.90;1.80;;;25.10;43.00;;;;;;5009132;28;20029;-37
2022/07/27 12:48:40;;;;;;;1.98;1.85;;;25.20;44.50;;;;;;5009710;28;20029;-37
2022/07/27 12:51:08;;;;;;;3.40;1.80;;;25.40;43.90;;;;;;5008276;28;20419;-37
2022/07/27 12:53:35;;;;;;;3.30;1.90;;;25.40;43.10;;;;;;5008322;28;20052;-38